KPOB

Pope AAF Airport

Fayetteville, North Carolina, USA
METAR KPOB 160156Z AUTO 00000KT 10SM FEW032 BKN044 11/10 A2995 RMK AO2 SLP145 T01090104 $
Observed Flight Rules
Dec-16 @ 01:56 UTC (38 minutes ago) Visual Flight Rules
Visibility Clouds
10 miles
  • Few at 3,200' AGL
  • Broken at 4,400' AGL
Temperatures Readings
Current 11°C / 52°F
Dewpoint 10°C / 50°F
Humidity 94%
Altimeter 29.95" Hg
Pressure 1014.5 hPa
Elevation 66
METAR KPOB 160156Z AUTO 00000KT 10SM FEW032 BKN044 11/10 A2995 RMK AO2 SLP145 T01090104 $
Observed Flight Rules
Dec-16 @ 01:56 UTC
(38 minutes ago)
VFR
Clouds
  • Few at 3,200' AGL
  • Broken at 4,400' AGL
Temperature Dewpoint
11°C / 52°F 10°C / 50°F
Humidity Altimeter Pressure
94% 29.95" Hg 1014.5 hPa